createdAt,value
2018-04-30T00:01:32.224Z,7.13
2018-04-30T00:03:59.416Z,6.50
2018-04-30T00:06:26.618Z,8.40
2018-04-30T00:08:53.798Z,6.80
2018-04-30T00:11:21.021Z,7.10
2018-04-30T00:13:48.206Z,8.50
2018-04-30T00:16:15.409Z,9.73
2018-04-30T00:18:42.581Z,4.50
2018-04-30T00:21:09.791Z,3.00
2018-04-30T00:23:36.992Z,2.47
2018-04-30T00:26:04.191Z,16.17
2018-04-30T00:28:31.403Z,8.70
2018-04-30T00:30:58.590Z,9.73
2018-04-30T00:33:25.785Z,4.83
2018-04-30T00:35:52.963Z,9.23
2018-04-30T00:38:20.149Z,5.67
2018-04-30T00:40:47.334Z,5.37
2018-04-30T00:43:14.553Z,7.47
2018-04-30T00:45:41.770Z,3.00
2018-04-30T00:48:08.963Z,7.90
2018-04-30T00:50:36.166Z,3.53
2018-04-30T00:53:03.468Z,12.53
2018-04-30T00:55:30.668Z,9.83
2018-04-30T00:57:57.842Z,6.73
2018-04-30T01:00:25.049Z,4.90
2018-04-30T01:02:52.444Z,6.27
2018-04-30T01:05:19.638Z,5.67
2018-04-30T01:07:46.842Z,6.83
2018-04-30T01:10:14.044Z,4.20
2018-04-30T01:12:41.237Z,4.87
2018-04-30T01:15:08.449Z,6.60
2018-04-30T01:17:35.631Z,5.37
2018-04-30T01:20:02.824Z,9.13
2018-04-30T01:22:30.026Z,8.50
2018-04-30T01:24:57.241Z,2.50
2018-04-30T01:27:24.429Z,4.87
2018-04-30T01:29:51.619Z,5.80
2018-04-30T01:32:18.820Z,6.30
2018-04-30T01:34:45.997Z,7.57
2018-04-30T01:37:13.193Z,6.33
2018-04-30T01:39:40.407Z,3.83
2018-04-30T01:42:07.602Z,3.87
2018-04-30T01:44:34.576Z,9.03
2018-04-30T01:47:01.790Z,17.87
2018-04-30T01:49:29.833Z,3.33
2018-04-30T01:51:56.786Z,5.33
2018-04-30T01:54:24.465Z,5.97
2018-04-30T01:56:51.422Z,9.53
2018-04-30T01:59:18.622Z,6.57
2018-04-30T02:01:45.812Z,4.30
2018-04-30T02:04:13.309Z,4.57
2018-04-30T02:06:40.488Z,6.40
2018-04-30T02:09:07.662Z,7.90
2018-04-30T02:11:34.864Z,10.50
2018-04-30T02:14:02.052Z,3.50
2018-04-30T02:16:29.246Z,4.47
2018-04-30T02:18:56.435Z,7.00
2018-04-30T02:21:23.631Z,3.30
2018-04-30T02:23:50.819Z,7.63
2018-04-30T02:26:17.998Z,7.30
2018-04-30T02:28:45.197Z,4.27
2018-04-30T02:31:12.477Z,7.77
2018-04-30T02:33:39.694Z,4.23
2018-04-30T02:36:07.066Z,7.40
2018-04-30T02:38:34.269Z,4.80
2018-04-30T02:41:01.474Z,12.00
2018-04-30T02:43:28.670Z,12.50
2018-04-30T02:45:55.886Z,7.53
2018-04-30T02:48:23.253Z,3.80
2018-04-30T02:50:50.443Z,6.40
2018-04-30T02:53:17.630Z,4.63
2018-04-30T02:55:44.839Z,7.40
2018-04-30T02:58:12.038Z,6.03
2018-04-30T03:00:40.006Z,6.00
2018-04-30T03:03:07.200Z,6.30
2018-04-30T03:05:34.416Z,3.33
2018-04-30T03:08:01.601Z,3.93
2018-04-30T03:10:29.492Z,6.80
2018-04-30T03:12:56.677Z,4.40
2018-04-30T03:15:23.901Z,4.73
2018-04-30T03:17:51.147Z,9.57
2018-04-30T03:20:18.334Z,3.20
2018-04-30T03:22:45.518Z,5.93
2018-04-30T03:25:12.709Z,5.23
2018-04-30T03:27:39.644Z,7.10
2018-04-30T03:30:06.831Z,9.07
2018-04-30T03:32:34.022Z,9.00
2018-04-30T03:35:01.212Z,9.20
2018-04-30T03:37:28.394Z,8.90
2018-04-30T03:39:55.620Z,4.13
2018-04-30T03:42:22.831Z,10.23
2018-04-30T03:44:50.020Z,19.20
2018-04-30T03:47:17.193Z,4.33
2018-04-30T03:49:44.421Z,6.43
2018-04-30T03:52:11.806Z,3.60
2018-04-30T03:54:38.986Z,9.90
2018-04-30T03:57:06.188Z,8.67
2018-04-30T03:59:33.367Z,8.93
2018-04-30T04:02:06.168Z,7.97
2018-04-30T04:04:39.144Z,6.47
2018-04-30T04:07:06.332Z,7.03
2018-04-30T04:09:33.542Z,14.73
2018-04-30T04:12:00.738Z,10.93
2018-04-30T04:14:27.929Z,2.57
2018-04-30T04:16:55.144Z,11.27
2018-04-30T04:19:22.342Z,4.10
2018-04-30T04:21:49.543Z,10.03
2018-04-30T04:24:16.727Z,4.83
2018-04-30T04:26:43.945Z,16.13
2018-04-30T04:29:11.134Z,5.53
2018-04-30T04:31:38.337Z,11.23
2018-04-30T04:34:05.528Z,3.87
2018-04-30T04:36:32.723Z,1.20
2018-04-30T04:38:59.927Z,10.23
2018-04-30T04:41:27.124Z,1.73
2018-04-30T04:43:54.328Z,7.73
2018-04-30T04:46:21.523Z,6.83
2018-04-30T04:48:48.726Z,7.30
2018-04-30T04:51:15.909Z,0.70
2018-04-30T04:53:43.108Z,19.47
2018-04-30T04:56:10.287Z,2.73
2018-04-30T04:58:37.461Z,3.60
2018-04-30T05:01:04.672Z,5.20
2018-04-30T05:03:32.146Z,5.22
2018-04-30T05:05:59.354Z,6.43
2018-04-30T05:08:26.853Z,9.25
2018-04-30T05:10:54.112Z,3.07
2018-04-30T05:13:21.429Z,0.97
2018-04-30T05:15:48.923Z,6.35
2018-04-30T05:18:16.434Z,4.95
2018-04-30T05:20:43.998Z,1.37
2018-04-30T05:23:11.493Z,2.45
2018-04-30T05:25:38.974Z,5.35
2018-04-30T05:28:07.256Z,6.82
2018-04-30T05:30:34.755Z,0.70
2018-04-30T05:33:02.243Z,1.85
2018-04-30T05:35:29.938Z,3.58
2018-04-30T05:37:57.157Z,0.60
2018-04-30T05:40:24.646Z,2.95
2018-04-30T05:42:52.121Z,1.50
2018-04-30T05:45:19.590Z,0.95
2018-04-30T05:47:47.079Z,6.72
2018-04-30T05:50:14.569Z,1.05
2018-04-30T05:52:42.053Z,4.10
2018-04-30T05:55:09.565Z,0.60
2018-04-30T05:57:37.237Z,0.65
2018-04-30T06:00:04.736Z,0.75
2018-04-30T06:02:32.210Z,0.70
2018-04-30T06:04:59.686Z,0.80
2018-04-30T06:07:27.149Z,7.43
2018-04-30T06:09:54.626Z,1.87
2018-04-30T06:12:22.103Z,1.77
2018-04-30T06:14:49.569Z,3.05
2018-04-30T06:17:17.064Z,8.43
2018-04-30T06:19:44.601Z,2.90
2018-04-30T06:22:12.100Z,1.20
2018-04-30T06:24:39.575Z,1.67
2018-04-30T06:27:07.697Z,0.70
2018-04-30T06:29:35.200Z,1.23
2018-04-30T06:32:02.823Z,1.50
2018-04-30T06:34:30.308Z,7.12
2018-04-30T06:36:57.815Z,2.05
2018-04-30T06:39:25.352Z,1.75
2018-04-30T06:41:52.839Z,0.80
2018-04-30T06:44:20.320Z,2.75
2018-04-30T06:46:47.826Z,3.05
2018-04-30T06:49:15.486Z,0.90
2018-04-30T06:51:42.979Z,1.65
2018-04-30T06:54:10.192Z,1.40
2018-04-30T06:56:38.549Z,1.10
2018-04-30T06:59:05.745Z,0.83
2018-04-30T07:01:32.945Z,2.57
2018-04-30T07:04:00.429Z,1.02
2018-04-30T07:06:27.635Z,0.90
2018-04-30T07:08:55.122Z,1.33
2018-04-30T07:11:22.601Z,1.20
2018-04-30T07:13:50.070Z,1.15
2018-04-30T07:16:17.984Z,1.48
2018-04-30T07:18:45.460Z,4.00
2018-04-30T07:21:13.067Z,1.05
2018-04-30T07:23:40.541Z,4.60
2018-04-30T07:26:08.053Z,1.65
2018-04-30T07:28:35.539Z,0.60
2018-04-30T07:31:03.030Z,8.48
2018-04-30T07:33:30.494Z,1.15
2018-04-30T07:35:57.984Z,1.10
2018-04-30T07:38:25.501Z,2.28
2018-04-30T07:40:52.983Z,2.90
2018-04-30T07:43:20.466Z,1.58
2018-04-30T07:45:47.943Z,0.90
2018-04-30T07:48:15.493Z,1.83
2018-04-30T07:50:43.125Z,1.12
2018-04-30T07:53:10.597Z,0.80
2018-04-30T07:55:38.079Z,0.70
2018-04-30T07:58:06.345Z,0.82
2018-04-30T08:00:33.827Z,8.35
2018-04-30T08:03:01.398Z,1.35
2018-04-30T08:05:29.024Z,4.62
2018-04-30T08:07:56.482Z,0.90
2018-04-30T08:10:23.972Z,0.70
2018-04-30T08:12:51.462Z,1.25
2018-04-30T08:15:18.651Z,0.70
2018-04-30T08:17:45.850Z,0.80
2018-04-30T08:20:13.050Z,0.80
2018-04-30T08:22:40.230Z,0.67
2018-04-30T08:25:07.436Z,0.70
2018-04-30T08:27:34.643Z,1.07
2018-04-30T08:30:01.915Z,1.03
2018-04-30T08:32:29.099Z,1.87
2018-04-30T08:34:56.307Z,1.00
2018-04-30T08:37:23.501Z,4.50
2018-04-30T08:39:50.712Z,2.73
2018-04-30T08:42:17.914Z,0.90
2018-04-30T08:44:45.118Z,0.80
2018-04-30T08:47:12.314Z,1.00
2018-04-30T08:49:39.502Z,1.30
2018-04-30T08:52:06.699Z,0.93
2018-04-30T08:54:33.890Z,0.93
2018-04-30T08:57:01.090Z,0.80
2018-04-30T08:59:28.278Z,1.67
2018-04-30T09:01:55.474Z,1.80
2018-04-30T09:04:22.930Z,1.23
2018-04-30T09:06:50.310Z,1.07
2018-04-30T09:09:17.505Z,0.93
2018-04-30T09:11:44.690Z,0.70
2018-04-30T09:14:11.886Z,1.30
2018-04-30T09:16:39.078Z,0.93
2018-04-30T09:19:06.582Z,1.40
2018-04-30T09:21:33.770Z,1.27
2018-04-30T09:24:00.975Z,2.77
2018-04-30T09:26:28.178Z,1.90
2018-04-30T09:28:55.371Z,1.23
2018-04-30T09:31:22.571Z,1.60
2018-04-30T09:33:49.765Z,0.83
2018-04-30T09:36:16.991Z,1.80
2018-04-30T09:38:44.194Z,3.97
2018-04-30T09:41:11.405Z,8.13
2018-04-30T09:43:38.592Z,1.23
2018-04-30T09:46:05.868Z,1.83
2018-04-30T09:48:33.237Z,0.73
2018-04-30T09:51:00.421Z,3.70
2018-04-30T09:53:27.675Z,0.60
2018-04-30T09:55:54.866Z,1.20
2018-04-30T09:58:22.101Z,1.27
2018-04-30T10:00:49.294Z,1.03
2018-04-30T10:03:16.479Z,1.53
2018-04-30T10:05:43.684Z,0.77
2018-04-30T10:08:10.881Z,1.37
2018-04-30T10:10:38.075Z,1.00
2018-04-30T10:13:05.057Z,3.67
2018-04-30T10:15:32.250Z,5.43
2018-04-30T10:17:59.470Z,3.33
2018-04-30T10:20:26.458Z,0.93
2018-04-30T10:22:53.638Z,0.90
2018-04-30T10:25:20.829Z,0.70
2018-04-30T10:27:48.168Z,0.70
2018-04-30T10:30:15.367Z,3.30
2018-04-30T10:32:42.545Z,4.50
2018-04-30T10:35:09.743Z,1.03
2018-04-30T10:37:36.923Z,1.43
2018-04-30T10:40:04.129Z,3.73
2018-04-30T10:42:31.514Z,0.70
2018-04-30T10:44:58.486Z,0.83
2018-04-30T10:47:25.683Z,1.87
2018-04-30T10:49:52.889Z,1.00
2018-04-30T10:52:20.117Z,1.30
2018-04-30T10:54:47.305Z,0.80
2018-04-30T10:57:14.499Z,3.03
2018-04-30T10:59:41.705Z,6.03
2018-04-30T11:02:08.888Z,1.77
2018-04-30T11:04:36.095Z,1.93
2018-04-30T11:07:03.306Z,6.00
2018-04-30T11:09:30.491Z,1.23
2018-04-30T11:11:57.698Z,2.03
2018-04-30T11:14:24.890Z,1.93
2018-04-30T11:16:52.117Z,1.70
2018-04-30T11:19:19.320Z,2.10
2018-04-30T11:21:46.546Z,0.90
2018-04-30T11:24:13.770Z,2.37
2018-04-30T11:26:40.960Z,1.57
2018-04-30T11:29:08.163Z,2.40
2018-04-30T11:31:35.365Z,5.20
2018-04-30T11:34:02.624Z,5.63
2018-04-30T11:36:29.944Z,1.97
2018-04-30T11:38:57.144Z,1.20
2018-04-30T11:41:24.551Z,1.20
2018-04-30T11:43:51.754Z,0.93
2018-04-30T11:46:19.161Z,4.73
2018-04-30T11:48:46.298Z,1.83
2018-04-30T11:51:13.702Z,1.20
2018-04-30T11:53:41.090Z,1.57
2018-04-30T11:56:08.237Z,5.63
2018-04-30T11:58:35.727Z,3.07
2018-04-30T12:01:03.047Z,1.80
2018-04-30T12:03:30.461Z,2.23
2018-04-30T12:05:57.670Z,2.40
2018-04-30T12:08:24.886Z,0.80
2018-04-30T12:10:52.118Z,4.67
2018-04-30T12:13:19.305Z,2.33
2018-04-30T12:15:46.527Z,2.00
2018-04-30T12:18:13.706Z,6.13
2018-04-30T12:20:41.115Z,1.43
2018-04-30T12:23:08.302Z,2.00
2018-04-30T12:25:35.514Z,2.10
2018-04-30T12:28:02.919Z,6.13
2018-04-30T12:30:30.331Z,1.00
2018-04-30T12:32:57.820Z,1.20
2018-04-30T12:35:25.230Z,1.93
2018-04-30T12:37:52.631Z,1.00
2018-04-30T12:40:19.823Z,1.37
2018-04-30T12:42:47.116Z,1.10
2018-04-30T12:45:14.470Z,1.80
2018-04-30T12:47:41.881Z,1.73
2018-04-30T12:50:09.091Z,1.43
2018-04-30T12:52:36.330Z,1.20
2018-04-30T12:55:03.756Z,3.33
2018-04-30T12:57:31.142Z,1.63
2018-04-30T12:59:58.560Z,1.03
2018-04-30T13:02:25.845Z,2.13
2018-04-30T13:04:53.147Z,1.33
2018-04-30T13:07:20.378Z,1.23
2018-04-30T13:09:47.759Z,3.20
2018-04-30T13:12:14.953Z,1.90
2018-04-30T13:14:42.977Z,2.80
2018-04-30T13:17:10.201Z,4.63
2018-04-30T13:19:37.390Z,1.90
2018-04-30T13:22:04.571Z,1.37
2018-04-30T13:24:31.817Z,0.97
2018-04-30T13:26:59.013Z,1.10
2018-04-30T13:29:26.218Z,3.90
2018-04-30T13:31:53.406Z,1.07
2018-04-30T13:34:20.678Z,1.13
2018-04-30T13:36:47.879Z,0.80
2018-04-30T13:39:15.077Z,2.43
2018-04-30T13:41:42.260Z,4.00
2018-04-30T13:44:09.457Z,2.80
2018-04-30T13:46:36.655Z,5.57
2018-04-30T13:49:03.861Z,6.73
2018-04-30T13:51:31.081Z,3.20
2018-04-30T13:53:58.313Z,1.43
2018-04-30T13:56:25.606Z,0.80
2018-04-30T13:58:52.815Z,1.53
2018-04-30T14:01:20.108Z,1.30
2018-04-30T14:03:47.430Z,5.03
2018-04-30T14:06:14.645Z,0.80
2018-04-30T14:08:41.844Z,1.13
2018-04-30T14:11:09.045Z,1.50
2018-04-30T14:13:36.246Z,1.03
2018-04-30T14:16:03.456Z,1.10
2018-04-30T14:18:30.839Z,1.47
2018-04-30T14:20:58.019Z,1.30
2018-04-30T14:23:25.232Z,1.00
2018-04-30T14:25:52.417Z,1.20
2018-04-30T14:28:19.593Z,2.27
2018-04-30T14:30:46.801Z,1.10
2018-04-30T14:33:13.996Z,1.07
2018-04-30T14:35:41.229Z,1.17
2018-04-30T14:38:08.495Z,1.50
2018-04-30T14:40:35.694Z,1.27
2018-04-30T14:43:02.886Z,1.00
2018-04-30T14:45:30.098Z,2.30
2018-04-30T14:47:57.409Z,2.93
2018-04-30T14:50:24.601Z,2.83
2018-04-30T14:52:51.803Z,1.60
2018-04-30T14:55:19.865Z,2.27
2018-04-30T14:57:47.140Z,1.00
2018-04-30T15:00:14.332Z,1.20
2018-04-30T15:02:41.550Z,1.30
2018-04-30T15:05:08.753Z,0.97
2018-04-30T15:07:35.949Z,1.30
2018-04-30T15:10:03.137Z,0.80
2018-04-30T15:12:30.334Z,1.67
2018-04-30T15:14:57.531Z,4.10
2018-04-30T15:17:24.726Z,1.17
2018-04-30T15:19:51.988Z,1.30
2018-04-30T15:22:19.195Z,2.47
2018-04-30T15:24:46.372Z,1.10
2018-04-30T15:27:13.582Z,1.40
2018-04-30T15:29:40.904Z,2.17
2018-04-30T15:32:08.142Z,2.43
2018-04-30T15:34:35.318Z,1.50
2018-04-30T15:37:02.507Z,1.63
2018-04-30T15:39:29.708Z,4.83
2018-04-30T15:41:56.899Z,5.20
2018-04-30T15:44:23.858Z,3.03
2018-04-30T15:46:51.049Z,4.60
2018-04-30T15:49:18.263Z,2.50
2018-04-30T15:51:45.477Z,3.07
2018-04-30T15:54:12.670Z,2.50
2018-04-30T15:56:39.890Z,1.53
2018-04-30T15:59:07.090Z,1.67
2018-04-30T16:01:34.290Z,2.23
2018-04-30T16:04:01.543Z,1.27
2018-04-30T16:06:28.822Z,1.80
2018-04-30T16:08:56.022Z,2.60
2018-04-30T16:11:23.219Z,1.83
2018-04-30T16:13:50.614Z,3.10
2018-04-30T16:16:17.812Z,1.37
2018-04-30T16:18:45.041Z,5.20
2018-04-30T16:21:12.232Z,1.43
2018-04-30T16:23:39.437Z,4.43
2018-04-30T16:26:06.621Z,1.97
2018-04-30T16:28:33.827Z,4.23
2018-04-30T16:31:01.178Z,1.83
2018-04-30T16:33:28.371Z,5.03
2018-04-30T16:35:55.599Z,2.30
2018-04-30T16:38:22.794Z,3.07
2018-04-30T16:40:49.991Z,3.80
2018-04-30T16:43:17.182Z,1.37
2018-04-30T16:45:44.521Z,5.90
2018-04-30T16:48:11.716Z,6.60
2018-04-30T16:50:38.911Z,2.30
2018-04-30T16:53:06.138Z,2.70
2018-04-30T16:55:33.527Z,2.80
2018-04-30T16:58:00.766Z,2.10
2018-04-30T17:00:27.958Z,2.40
2018-04-30T17:02:55.170Z,4.40
2018-04-30T17:05:22.373Z,1.37
2018-04-30T17:07:49.619Z,1.80
2018-04-30T17:10:17.007Z,1.43
2018-04-30T17:12:44.230Z,4.47
2018-04-30T17:15:11.445Z,3.50
2018-04-30T17:17:38.653Z,2.10
2018-04-30T17:20:05.871Z,2.03
2018-04-30T17:22:33.103Z,2.90
2018-04-30T17:25:00.303Z,3.37
2018-04-30T17:27:27.510Z,3.10
2018-04-30T17:29:54.755Z,2.93
2018-04-30T17:32:21.963Z,1.77
2018-04-30T17:34:49.175Z,6.67
2018-04-30T17:37:16.397Z,1.67
2018-04-30T17:39:43.613Z,2.60
2018-04-30T17:42:10.914Z,9.33
2018-04-30T17:44:38.102Z,3.53
2018-04-30T17:47:05.322Z,2.60
2018-04-30T17:49:32.512Z,2.00
2018-04-30T17:51:59.738Z,1.30
2018-04-30T17:54:26.954Z,3.67
2018-04-30T17:56:53.939Z,2.50
2018-04-30T17:59:21.145Z,4.00
2018-04-30T18:01:48.354Z,4.80
2018-04-30T18:04:15.565Z,2.73
2018-04-30T18:06:42.801Z,2.30
2018-04-30T18:09:10.199Z,6.33
2018-04-30T18:11:37.413Z,12.73
2018-04-30T18:14:04.607Z,8.50
2018-04-30T18:16:31.821Z,16.67
2018-04-30T18:18:59.027Z,24.37
2018-04-30T18:21:26.237Z,16.23
2018-04-30T18:23:53.449Z,7.13
2018-04-30T18:26:20.655Z,3.43
2018-04-30T18:28:47.881Z,11.40
2018-04-30T18:31:15.082Z,5.60
2018-04-30T18:33:42.265Z,3.33
2018-04-30T18:36:09.465Z,2.63
2018-04-30T18:38:36.690Z,5.43
2018-04-30T18:41:04.098Z,7.23
2018-04-30T18:43:31.291Z,3.73
2018-04-30T18:45:58.510Z,2.13
2018-04-30T18:48:25.716Z,4.10
2018-04-30T18:50:52.935Z,2.20
2018-04-30T18:53:20.142Z,3.63
2018-04-30T18:55:47.351Z,1.30
2018-04-30T18:58:14.563Z,4.43
2018-04-30T19:00:41.775Z,3.27
2018-04-30T19:03:08.971Z,4.00
2018-04-30T19:05:36.199Z,4.60
2018-04-30T19:08:03.400Z,1.83
2018-04-30T19:10:30.587Z,8.50
2018-04-30T19:12:57.791Z,5.17
2018-04-30T19:15:24.988Z,3.33
2018-04-30T19:17:52.195Z,4.57
2018-04-30T19:20:19.405Z,8.50
2018-04-30T19:22:46.639Z,2.90
2018-04-30T19:25:13.838Z,6.57
2018-04-30T19:27:42.682Z,12.23
2018-04-30T19:30:09.909Z,4.70
2018-04-30T19:32:37.125Z,16.90
2018-04-30T19:35:05.311Z,5.67
2018-04-30T19:37:32.512Z,6.20
2018-04-30T19:39:59.734Z,4.43
2018-04-30T19:42:27.193Z,4.60
2018-04-30T19:44:54.437Z,2.70
2018-04-30T19:47:21.648Z,2.80
2018-04-30T19:49:48.866Z,3.23
2018-04-30T19:52:16.088Z,7.07
2018-04-30T19:54:43.287Z,2.20
2018-04-30T19:57:10.512Z,5.43
2018-04-30T19:59:38.178Z,5.63
2018-04-30T20:02:05.406Z,3.00
2018-04-30T20:04:32.660Z,4.17
2018-04-30T20:06:59.856Z,7.17
2018-04-30T20:09:27.063Z,5.17
2018-04-30T20:11:54.285Z,8.53
2018-04-30T20:14:21.513Z,7.47
2018-04-30T20:16:48.721Z,4.80
2018-04-30T20:19:16.032Z,1.63
2018-04-30T20:21:43.265Z,2.10
2018-04-30T20:24:11.477Z,3.63
2018-04-30T20:26:38.720Z,1.93
2018-04-30T20:29:05.936Z,1.40
2018-04-30T20:31:33.165Z,1.70
2018-04-30T20:34:00.382Z,10.63
2018-04-30T20:36:27.576Z,4.77
2018-04-30T20:38:54.646Z,4.30
2018-04-30T20:41:21.837Z,1.80
2018-04-30T20:43:49.035Z,1.57
2018-04-30T20:46:16.272Z,5.73
2018-04-30T20:48:43.512Z,6.73
2018-04-30T20:51:10.693Z,8.33
2018-04-30T20:53:37.909Z,6.47
2018-04-30T20:56:05.110Z,2.70
2018-04-30T20:58:32.342Z,2.57
2018-04-30T21:00:59.839Z,2.47
2018-04-30T21:03:27.058Z,3.33
2018-04-30T21:05:54.256Z,2.97
2018-04-30T21:08:21.485Z,3.27
2018-04-30T21:10:48.677Z,4.37
2018-04-30T21:13:15.920Z,12.47
2018-04-30T21:15:42.908Z,6.43
2018-04-30T21:18:10.094Z,3.47
2018-04-30T21:20:37.317Z,3.60
2018-04-30T21:23:04.535Z,5.00
2018-04-30T21:25:31.753Z,29.20
2018-04-30T21:27:59.150Z,4.10
2018-04-30T21:30:26.361Z,8.33
2018-04-30T21:32:53.551Z,3.17
2018-04-30T21:35:20.773Z,2.17
2018-04-30T21:37:47.992Z,2.43
2018-04-30T21:40:15.186Z,3.23
2018-04-30T21:42:42.397Z,3.23
2018-04-30T21:45:09.580Z,2.90
2018-04-30T21:47:36.823Z,7.13
2018-04-30T21:50:04.177Z,5.63
2018-04-30T21:52:31.406Z,4.17
2018-04-30T21:54:58.712Z,5.13
2018-04-30T21:57:25.902Z,2.07
2018-04-30T21:59:53.110Z,1.73
2018-04-30T22:02:20.314Z,1.70
2018-04-30T22:04:47.500Z,1.37
2018-04-30T22:07:14.685Z,1.60
2018-04-30T22:09:41.879Z,3.77
2018-04-30T22:12:09.157Z,1.93
2018-04-30T22:14:36.469Z,1.97
2018-04-30T22:17:03.650Z,1.77
2018-04-30T22:19:30.857Z,2.07
2018-04-30T22:21:58.087Z,4.50
2018-04-30T22:24:25.275Z,2.77
2018-04-30T22:26:52.467Z,2.17
2018-04-30T22:29:19.657Z,1.60
2018-04-30T22:31:46.878Z,2.67
2018-04-30T22:34:14.119Z,2.63
2018-04-30T22:36:41.308Z,2.93
2018-04-30T22:39:08.500Z,3.27
2018-04-30T22:41:35.687Z,9.80
2018-04-30T22:44:02.881Z,15.07
2018-04-30T22:46:30.070Z,17.97
2018-04-30T22:48:57.270Z,11.20
2018-04-30T22:51:24.483Z,15.23
2018-04-30T22:53:51.714Z,14.67
2018-04-30T22:56:18.917Z,9.60
2018-04-30T22:58:46.114Z,32.00
2018-04-30T23:01:13.434Z,58.00
2018-04-30T23:03:40.630Z,40.53
2018-04-30T23:06:07.832Z,43.93
2018-04-30T23:08:35.309Z,37.58
2018-04-30T23:11:02.811Z,36.85
2018-04-30T23:13:30.314Z,27.23
2018-04-30T23:15:57.784Z,17.70
2018-04-30T23:18:25.270Z,12.10
2018-04-30T23:20:52.756Z,22.17
2018-04-30T23:23:20.256Z,13.85
2018-04-30T23:25:47.745Z,16.45
2018-04-30T23:28:15.239Z,10.73
2018-04-30T23:30:42.737Z,10.35
2018-04-30T23:33:10.195Z,8.60
2018-04-30T23:35:37.687Z,3.25
2018-04-30T23:38:05.179Z,5.47
2018-04-30T23:40:32.693Z,3.33
2018-04-30T23:43:00.165Z,2.70
2018-04-30T23:45:27.650Z,3.58
2018-04-30T23:47:55.133Z,4.60
2018-04-30T23:50:22.637Z,1.85
2018-04-30T23:52:50.126Z,2.08
2018-04-30T23:55:17.728Z,2.00
2018-04-30T23:57:45.246Z,3.12
